createdAt,value
2019-01-02T00:01:37.522Z,3.70
2019-01-02T00:07:42.549Z,3.60
2019-01-02T00:13:47.113Z,3.60
2019-01-02T00:19:51.781Z,3.40
2019-01-02T00:25:56.400Z,3.30
2019-01-02T00:32:00.977Z,3.40
2019-01-02T00:38:05.879Z,3.50
2019-01-02T00:44:10.518Z,3.60
2019-01-02T00:50:15.143Z,3.80
2019-01-02T00:56:19.751Z,3.80
2019-01-02T01:02:24.678Z,3.80
2019-01-02T01:08:29.245Z,3.60
2019-01-02T01:14:34.082Z,3.40
2019-01-02T01:20:38.773Z,3.30
2019-01-02T01:26:43.340Z,3.40
2019-01-02T01:32:47.943Z,3.40
2019-01-02T01:38:53.048Z,3.60
2019-01-02T01:44:57.699Z,3.50
2019-01-02T01:51:02.328Z,3.40
2019-01-02T01:57:07.018Z,3.40
2019-01-02T02:03:11.675Z,3.30
2019-01-02T02:09:16.612Z,3.40
2019-01-02T02:15:21.537Z,3.40
2019-01-02T02:21:26.469Z,3.50
2019-01-02T02:27:31.296Z,3.60
2019-01-02T02:33:36.231Z,3.60
2019-01-02T02:39:41.190Z,3.70
2019-01-02T02:45:46.252Z,3.70
2019-01-02T02:51:51.191Z,3.80
2019-01-02T02:57:56.018Z,3.80
2019-01-02T03:04:00.587Z,3.80
2019-01-02T03:10:09.527Z,3.90
2019-01-02T03:16:14.366Z,3.90
2019-01-02T03:22:20.971Z,4.00
2019-01-02T03:28:25.808Z,4.10
2019-01-02T03:34:30.721Z,4.10
2019-01-02T03:40:35.649Z,4.10
2019-01-02T03:46:40.343Z,4.10
2019-01-02T03:52:44.972Z,4.10
2019-01-02T03:58:49.539Z,4.00
2019-01-02T04:04:54.116Z,4.00
2019-01-02T04:10:58.752Z,4.00
2019-01-02T04:17:03.335Z,4.00
2019-01-02T04:23:08.021Z,3.90
2019-01-02T04:29:12.569Z,4.00
2019-01-02T04:35:17.161Z,3.90
2019-01-02T04:41:21.791Z,3.90
2019-01-02T04:47:26.358Z,3.90
2019-01-02T04:53:30.991Z,3.90
2019-01-02T04:59:35.573Z,3.80
2019-01-02T05:05:40.147Z,3.90
2019-01-02T05:11:44.758Z,3.90
2019-01-02T05:17:49.309Z,3.90
2019-01-02T05:23:53.870Z,3.80
2019-01-02T05:29:58.433Z,3.80
2019-01-02T05:36:02.998Z,3.70
2019-01-02T05:42:07.559Z,3.70
2019-01-02T05:48:12.122Z,3.70
2019-01-02T05:54:16.700Z,3.70
2019-01-02T06:00:21.327Z,3.60
2019-01-02T06:06:25.898Z,3.60
2019-01-02T06:12:30.461Z,3.60
2019-01-02T06:18:35.022Z,3.60
2019-01-02T06:24:39.603Z,3.60
2019-01-02T06:30:44.284Z,3.70
2019-01-02T06:36:48.918Z,3.80
2019-01-02T06:42:53.472Z,3.90
2019-01-02T06:48:58.047Z,4.00
2019-01-02T06:55:02.599Z,4.10
2019-01-02T07:01:07.234Z,4.10
2019-01-02T07:07:11.859Z,4.10
2019-01-02T07:13:16.408Z,4.00
2019-01-02T07:19:22.678Z,4.00
2019-01-02T07:25:27.259Z,4.00
2019-01-02T07:31:31.800Z,4.00
2019-01-02T07:37:43.742Z,4.00
2019-01-02T07:44:25.936Z,4.10
2019-01-02T07:51:06.282Z,4.10
2019-01-02T07:57:46.892Z,4.10
2019-01-02T08:04:28.980Z,4.10
2019-01-02T08:11:00.357Z,4.10
2019-01-02T08:17:18.354Z,4.10
2019-01-02T08:24:04.747Z,4.00
2019-01-02T08:30:28.624Z,4.00
2019-01-02T08:37:10.533Z,3.90
2019-01-02T08:43:28.512Z,3.80
2019-01-02T08:50:03.030Z,3.80
2019-01-02T08:56:28.771Z,3.70
2019-01-02T09:02:43.704Z,3.80
2019-01-02T09:09:21.268Z,3.80
2019-01-02T09:15:51.075Z,3.70
2019-01-02T09:22:08.725Z,3.60
2019-01-02T09:28:49.433Z,3.60
2019-01-02T09:35:38.830Z,3.50
2019-01-02T09:42:02.513Z,3.50
2019-01-02T09:48:45.963Z,3.60
2019-01-02T09:55:06.798Z,3.60
2019-01-02T10:01:39.972Z,3.60
2019-01-02T10:07:51.823Z,3.50
2019-01-02T10:14:45.806Z,3.50
2019-01-02T10:21:12.670Z,3.50
2019-01-02T10:27:47.009Z,3.60
2019-01-02T10:34:16.768Z,3.60
2019-01-02T10:40:51.323Z,3.60
2019-01-02T10:47:12.527Z,3.60
2019-01-02T10:53:36.747Z,3.60
2019-01-02T11:00:03.530Z,3.60
2019-01-02T11:06:40.746Z,3.80
2019-01-02T11:13:10.532Z,3.70
2019-01-02T11:19:42.072Z,3.60
2019-01-02T11:26:24.021Z,3.50
2019-01-02T11:32:58.303Z,3.50
2019-01-02T11:39:22.376Z,3.60
2019-01-02T11:45:26.933Z,3.60
2019-01-02T11:51:31.493Z,3.70
2019-01-02T11:57:36.053Z,3.80
2019-01-02T12:03:40.610Z,3.90
2019-01-02T12:09:45.192Z,3.90
2019-01-02T12:15:49.763Z,4.00
2019-01-02T12:21:54.372Z,4.00
2019-01-02T12:27:58.954Z,4.10
2019-01-02T12:34:03.504Z,4.20
2019-01-02T12:40:08.794Z,4.30
2019-01-02T12:46:13.342Z,4.30
2019-01-02T12:52:17.904Z,4.30
2019-01-02T12:58:22.537Z,4.30
2019-01-02T13:04:40.169Z,4.10
2019-01-02T13:10:49.391Z,4.10
2019-01-02T13:17:18.813Z,4.00
2019-01-02T13:23:36.542Z,3.90
2019-01-02T13:30:06.347Z,4.00
2019-01-02T13:36:27.114Z,3.80
2019-01-02T13:42:48.074Z,3.80
2019-01-02T13:49:22.418Z,3.80
2019-01-02T13:55:26.971Z,3.90
2019-01-02T14:01:31.527Z,3.90
2019-01-02T14:07:36.967Z,3.80
2019-01-02T14:13:41.525Z,3.80
2019-01-02T14:19:46.078Z,3.70
2019-01-02T14:25:50.634Z,3.60
2019-01-02T14:31:55.185Z,3.40
2019-01-02T14:37:59.728Z,3.40
2019-01-02T14:44:04.343Z,3.30
2019-01-02T14:50:10.022Z,3.10
2019-01-02T14:56:14.591Z,3.00
2019-01-02T15:02:19.299Z,3.00
2019-01-02T15:08:23.838Z,2.80
2019-01-02T15:14:28.383Z,2.80
2019-01-02T15:20:32.933Z,2.90
2019-01-02T15:26:37.489Z,2.90
2019-01-02T15:32:42.043Z,2.80
2019-01-02T15:38:46.604Z,2.90
2019-01-02T15:44:51.174Z,2.80
2019-01-02T15:50:55.728Z,2.70
2019-01-02T15:57:00.272Z,2.70
2019-01-02T16:03:04.899Z,2.70
2019-01-02T16:09:09.610Z,2.70
2019-01-02T16:15:14.166Z,2.70
2019-01-02T16:21:19.933Z,2.80
2019-01-02T16:27:24.483Z,2.80
2019-01-02T16:33:29.107Z,2.80
2019-01-02T16:39:33.653Z,2.70
2019-01-02T16:45:38.215Z,2.70
2019-01-02T16:51:42.782Z,2.70
2019-01-02T16:57:47.337Z,2.60
2019-01-02T17:03:51.912Z,2.60
2019-01-02T17:09:56.551Z,2.50
2019-01-02T17:16:01.204Z,2.30
2019-01-02T17:22:05.750Z,2.10
2019-01-02T17:28:10.300Z,2.00
2019-01-02T17:34:14.857Z,1.90
2019-01-02T17:40:19.442Z,1.80
2019-01-02T17:46:23.990Z,1.80
2019-01-02T17:52:28.540Z,1.80
2019-01-02T17:58:33.122Z,1.70
2019-01-02T18:04:37.736Z,1.80
2019-01-02T18:10:42.289Z,1.70
2019-01-02T18:16:46.853Z,1.60
2019-01-02T18:22:51.406Z,1.60
2019-01-02T18:28:55.994Z,1.60
2019-01-02T18:35:00.557Z,1.70
2019-01-02T18:41:05.128Z,1.80
2019-01-02T18:47:09.761Z,1.80
2019-01-02T18:53:14.313Z,1.90
2019-01-02T18:59:18.947Z,1.90
2019-01-02T19:05:23.501Z,1.90
2019-01-02T19:11:28.060Z,1.80
2019-01-02T19:17:32.611Z,1.60
2019-01-02T19:23:37.168Z,1.50
2019-01-02T19:29:41.737Z,1.30
2019-01-02T19:35:46.355Z,1.20
2019-01-02T19:41:50.956Z,1.00
2019-01-02T19:47:55.488Z,1.00
2019-01-02T19:54:00.040Z,0.90
2019-01-02T20:00:07.324Z,0.90
2019-01-02T20:06:11.875Z,0.90
2019-01-02T20:12:16.444Z,0.80
2019-01-02T20:18:21.573Z,0.70
2019-01-02T20:24:26.148Z,0.60
2019-01-02T20:30:30.717Z,0.60
2019-01-02T20:36:40.563Z,0.60
2019-01-02T20:42:41.623Z,0.50
2019-01-02T20:48:46.197Z,0.50
2019-01-02T20:54:50.746Z,0.50
2019-01-02T21:00:55.401Z,0.40
2019-01-02T21:06:59.949Z,0.40
2019-01-02T21:13:04.597Z,0.30
2019-01-02T21:19:09.272Z,0.20
2019-01-02T21:25:13.839Z,0.20
2019-01-02T21:31:18.476Z,0.10
2019-01-02T21:37:23.091Z,0.10
2019-01-02T21:43:27.649Z,0.10
2019-01-02T21:49:32.232Z,0.00
2019-01-02T21:55:36.826Z,0.00
2019-01-02T22:01:41.366Z,-0.10
2019-01-02T22:07:45.917Z,0.00
2019-01-02T22:13:50.506Z,0.00
2019-01-02T22:19:55.042Z,0.00
2019-01-02T22:25:59.671Z,0.10
2019-01-02T22:32:04.233Z,0.10
2019-01-02T22:38:08.815Z,0.00
2019-01-02T22:44:13.384Z,-0.10
2019-01-02T22:50:17.972Z,-0.10
2019-01-02T22:56:22.525Z,-0.20
2019-01-02T23:02:28.768Z,-0.20
2019-01-02T23:08:37.923Z,-0.20
2019-01-02T23:14:44.151Z,-0.20
2019-01-02T23:20:53.079Z,-0.20
2019-01-02T23:27:14.056Z,-0.30
2019-01-02T23:33:36.132Z,-0.20
2019-01-02T23:39:49.316Z,-0.20
2019-01-02T23:45:55.578Z,-0.20
2019-01-02T23:52:01.773Z,-0.20
2019-01-02T23:58:10.714Z,-0.30
